Time;durP1;ratioP1;P1;durP2;ratioP2;P2;SDS_P1;SDS_P2;PMS_P1;PMS_P2;Temp;Humidity;BMP_temperature;BMP_pressure;BME280_temperature;BME280_humidity;BME280_pressure;Samples;Min_cycle;Max_cycle;Signal;HPM_P1;HPM_P2
2023/06/06 00:04:29;;;;;;;19.85;6.95;;;;;;;14.50;64.97;100756.09;10352337;28;20042;-76
2023/06/06 00:09:32;;;;;;;9.25;6.20;;;;;;;14.31;65.97;100756.03;10349612;28;20089;-76
2023/06/06 00:14:36;;;;;;;10.25;5.72;;;;;;;14.68;64.34;100758.13;10355462;28;20067;-75
2023/06/06 00:19:42;;;;;;;12.32;6.75;;;;;;;14.61;64.64;100760.50;10351873;28;20092;-75
2023/06/06 00:24:45;;;;;;;12.38;6.50;;;;;;;14.66;64.66;100750.13;10351785;28;20053;-75
2023/06/06 00:29:50;;;;;;;10.77;6.93;;;;;;;14.85;63.76;100746.56;10352346;28;20037;-75
2023/06/06 00:34:55;;;;;;;12.93;6.75;;;;;;;14.86;64.02;100752.81;10354127;28;20042;-76
2023/06/06 00:39:57;;;;;;;11.98;6.57;;;;;;;14.75;63.81;100743.00;10345360;28;20042;-75
2023/06/06 00:45:02;;;;;;;13.07;7.38;;;;;;;14.31;65.30;100751.47;10347078;28;20053;-75
2023/06/06 00:50:06;;;;;;;14.60;7.28;;;;;;;14.10;65.85;100748.91;10348335;28;20529;-75
2023/06/06 00:55:10;;;;;;;11.45;6.18;;;;;;;14.31;65.31;100756.03;10352866;28;20046;-74
2023/06/06 01:00:15;;;;;;;17.10;7.32;;;;;;;14.28;65.69;100749.06;10350454;28;20073;-74
2023/06/06 01:05:18;;;;;;;12.35;7.35;;;;;;;14.13;65.38;100754.03;10347601;28;20057;-74
2023/06/06 01:10:22;;;;;;;10.02;6.82;;;;;;;13.81;66.32;100762.28;10352293;28;20147;-74
2023/06/06 01:15:33;;;;;;;12.82;7.35;;;;;;;13.08;69.13;100757.88;10357563;28;20042;-73
2023/06/06 01:20:36;;;;;;;8.63;6.75;;;;;;;13.51;67.43;100748.81;10358384;28;20104;-74
2023/06/06 01:25:44;;;;;;;11.48;7.13;;;;;;;13.09;68.45;100760.47;10357038;28;20050;-75
2023/06/06 01:30:47;;;;;;;11.18;7.03;;;;;;;12.32;71.23;100761.53;10360339;28;20046;-74
2023/06/06 01:36:03;;;;;;;15.10;7.78;;;;;;;12.96;70.09;100751.72;10357655;28;20046;-74
2023/06/06 01:41:10;;;;;;;14.25;8.63;;;;;;;13.34;67.95;100734.94;10362329;28;20034;-75
2023/06/06 01:46:14;;;;;;;13.13;7.78;;;;;;;12.74;69.34;100744.59;10353338;28;20449;-75
2023/06/06 01:51:18;;;;;;;18.25;8.43;;;;;;;12.52;70.21;100753.63;10354918;28;20050;-74
2023/06/06 01:56:23;;;;;;;12.45;7.72;;;;;;;12.81;68.88;100745.81;10352781;28;20074;-74
2023/06/06 02:01:26;;;;;;;15.50;7.90;;;;;;;12.51;69.95;100758.19;10353827;28;20046;-75
2023/06/06 02:06:29;;;;;;;16.92;9.00;;;;;;;12.74;69.65;100753.53;10358061;28;20554;-74
2023/06/06 02:11:34;;;;;;;13.00;7.72;;;;;;;13.10;68.26;100753.22;10361047;28;20166;-74
2023/06/06 02:16:37;;;;;;;13.65;8.02;;;;;;;13.22;67.23;100752.19;10364609;28;20054;-74
2023/06/06 02:21:40;;;;;;;12.63;7.53;;;;;;;13.24;66.94;100752.88;10364312;28;20101;-74
2023/06/06 02:26:44;;;;;;;16.40;9.07;;;;;;;12.80;67.65;100741.38;10356853;28;20560;-74
2023/06/06 02:31:48;;;;;;;15.02;8.70;;;;;;;12.88;67.82;100744.28;10358372;28;20042;-74
2023/06/06 02:43:42;;;;;;;15.30;9.73;;;;;;;12.79;67.51;100743.22;10351718;28;20494;-74
2023/06/06 02:48:48;;;;;;;15.13;8.18;;;;;;;12.46;68.22;100743.38;10353464;28;20041;-74
2023/06/06 02:53:51;;;;;;;14.40;8.68;;;;;;;12.60;68.10;100743.91;10354316;28;20129;-74
2023/06/06 02:58:55;;;;;;;15.45;8.70;;;;;;;12.35;68.62;100755.88;10354792;28;20121;-74
2023/06/06 03:03:58;;;;;;;18.27;9.52;;;;;;;12.26;69.09;100753.06;10353256;28;20478;-74
2023/06/06 03:09:04;;;;;;;15.73;9.63;;;;;;;12.16;69.32;100750.28;10353086;28;20520;-74
2023/06/06 03:14:08;;;;;;;15.20;9.38;;;;;;;12.05;69.58;100751.16;10352147;28;20050;-74
2023/06/06 03:19:13;;;;;;;17.83;10.18;;;;;;;12.05;69.81;100753.00;10358848;28;20077;-75
2023/06/06 03:24:17;;;;;;;14.65;9.25;;;;;;;11.69;70.91;100750.44;10351771;28;20061;-74
2023/06/06 03:29:22;;;;;;;16.83;10.05;;;;;;;11.55;71.14;100757.94;10366854;28;20093;-74
2023/06/06 03:34:25;;;;;;;19.20;9.48;;;;;;;10.95;73.44;100757.19;10350783;28;20129;-75
2023/06/06 03:39:30;;;;;;;23.00;10.25;;;;;;;11.59;72.05;100765.63;10353535;28;20046;-74
2023/06/06 03:44:35;;;;;;;16.15;10.18;;;;;;;11.56;71.87;100763.16;10351869;28;20054;-75
2023/06/06 03:49:38;;;;;;;24.50;10.25;;;;;;;11.77;71.42;100765.16;10351045;28;20086;-75
2023/06/06 03:54:41;;;;;;;20.80;10.38;;;;;;;11.70;71.20;100752.16;10350567;28;20038;-74
2023/06/06 03:59:46;;;;;;;20.67;11.00;;;;;;;12.17;70.47;100763.59;10357488;28;20506;-74
2023/06/06 04:04:51;;;;;;;20.15;11.85;;;;;;;12.14;69.96;100760.31;10358434;28;20107;-74
2023/06/06 04:09:54;;;;;;;19.83;9.70;;;;;;;12.33;69.36;100759.69;10354745;28;20061;-74
2023/06/06 04:14:58;;;;;;;17.85;10.30;;;;;;;12.13;69.83;100761.31;10352112;28;20041;-74
2023/06/06 04:20:03;;;;;;;16.48;10.55;;;;;;;12.13;69.62;100772.94;10349109;28;20041;-74
2023/06/06 04:25:08;;;;;;;20.70;10.50;;;;;;;11.73;71.38;100770.75;10346683;28;20096;-74
2023/06/06 04:30:13;;;;;;;23.10;11.40;;;;;;;12.02;71.33;100772.94;10348149;28;20452;-74
2023/06/06 04:35:18;;;;;;;20.35;11.45;;;;;;;12.02;71.00;100770.25;10348554;28;20037;-73
2023/06/06 04:40:21;;;;;;;20.05;11.38;;;;;;;12.46;70.56;100773.00;10355218;28;20050;-74
2023/06/06 04:45:26;;;;;;;18.85;11.15;;;;;;;12.77;69.32;100766.75;10345985;28;20047;-74
2023/06/06 04:50:30;;;;;;;22.08;10.95;;;;;;;12.41;69.55;100765.31;10349840;28;20093;-74
2023/06/06 04:55:34;;;;;;;20.70;12.10;;;;;;;12.33;70.36;100768.63;10348052;28;20042;-74
2023/06/06 05:00:45;;;;;;;20.60;11.85;;;;;;;12.73;70.15;100765.31;10349628;28;20054;-74
2023/06/06 05:05:49;;;;;;;22.55;12.32;;;;;;;13.05;69.20;100762.59;10348681;28;20077;-74
2023/06/06 05:10:53;;;;;;;19.45;12.20;;;;;;;13.00;68.74;100763.94;10352581;28;20038;-74
2023/06/06 05:15:57;;;;;;;20.95;10.77;;;;;;;13.06;69.43;100771.53;10349337;28;20045;-74
2023/06/06 05:21:02;;;;;;;21.30;12.13;;;;;;;13.15;69.74;100764.47;10349160;28;20033;-74
2023/06/06 05:26:05;;;;;;;19.83;12.13;;;;;;;13.48;69.07;100768.81;10348478;28;20034;-74
2023/06/06 05:31:09;;;;;;;18.50;12.05;;;;;;;13.47;68.65;100761.72;10349925;28;20042;-74
2023/06/06 05:36:13;;;;;;;20.83;11.77;;;;;;;13.51;68.35;100770.41;10349959;28;20084;-74
2023/06/06 05:41:15;;;;;;;22.23;12.70;;;;;;;13.73;68.55;100772.91;10347151;28;20041;-74
2023/06/06 05:46:20;;;;;;;23.13;12.02;;;;;;;13.83;68.52;100768.44;10345628;28;20050;-73
2023/06/06 05:51:22;;;;;;;22.65;11.73;;;;;;;14.04;68.76;100768.38;10347413;28;20113;-73
2023/06/06 05:56:26;;;;;;;18.73;12.07;;;;;;;14.23;67.88;100764.84;10347389;28;20057;-74
2023/06/06 06:01:30;;;;;;;16.63;11.27;;;;;;;14.21;67.52;100766.84;10354714;28;20042;-73
2023/06/06 06:06:33;;;;;;;20.45;10.93;;;;;;;14.51;66.17;100765.94;10349913;28;20042;-73
2023/06/06 06:11:36;;;;;;;18.60;10.55;;;;;;;14.79;65.69;100772.34;10347322;28;20041;-73
2023/06/06 06:16:40;;;;;;;23.70;11.88;;;;;;;15.10;64.37;100768.63;10344708;28;20120;-74
2023/06/06 06:21:43;;;;;;;16.77;11.07;;;;;;;15.34;63.86;100766.31;10343971;28;20042;-73
2023/06/06 06:26:46;;;;;;;18.10;10.90;;;;;;;15.61;63.18;100786.34;10348868;28;20038;-74
2023/06/06 06:31:50;;;;;;;18.67;11.18;;;;;;;15.77;61.59;100780.28;10345931;28;20038;-73
2023/06/06 06:36:53;;;;;;;20.83;12.05;;;;;;;16.05;61.02;100776.59;10352280;28;20671;-73
2023/06/06 06:41:55;;;;;;;18.63;11.00;;;;;;;16.29;60.11;100784.22;10359513;28;20490;-73
2023/06/06 06:47:09;;;;;;;;;;;;;;;16.43;59.81;100782.84;10362289;28;20163;-73
2023/06/06 06:52:15;;;;;;;13.55;9.35;;;;;;;16.43;59.58;100788.25;10363961;28;19921;-73
2023/06/06 06:57:19;;;;;;;17.48;10.52;;;;;;;16.38;59.06;100796.00;10364718;28;20389;-73
2023/06/06 07:02:26;;;;;;;18.58;10.40;;;;;;;16.30;59.38;100802.16;10366586;28;20065;-73
2023/06/06 07:07:29;;;;;;;17.30;10.38;;;;;;;16.38;59.68;100804.13;10365228;28;20045;-74
2023/06/06 07:12:32;;;;;;;13.05;8.98;;;;;;;16.41;60.01;100808.41;10367628;28;20038;-73
2023/06/06 07:17:36;;;;;;;19.38;10.88;;;;;;;16.40;59.33;100801.25;10361321;28;20521;-74
2023/06/06 07:22:39;;;;;;;15.75;9.45;;;;;;;17.65;58.06;100796.59;10359209;28;20038;-74
2023/06/06 07:27:42;;;;;;;15.05;9.70;;;;;;;18.06;55.25;100796.00;10358984;28;20042;-73
2023/06/06 07:32:47;;;;;;;15.50;10.18;;;;;;;19.42;52.25;100785.66;10359251;28;20044;-74
2023/06/06 07:37:50;;;;;;;17.17;9.68;;;;;;;21.34;49.26;100779.75;10358326;28;20041;-77
2023/06/06 07:42:54;;;;;;;13.25;8.93;;;;;;;23.04;44.80;100772.25;10358096;28;20416;-76
2023/06/06 07:47:59;;;;;;;14.77;8.25;;;;;;;23.46;43.58;100775.97;10352823;28;20076;-76
2023/06/06 07:53:02;;;;;;;14.43;8.63;;;;;;;22.54;43.72;100779.53;10352941;28;20070;-76
2023/06/06 07:58:10;;;;;;;14.02;8.80;;;;;;;21.08;47.08;100782.88;10356099;28;20528;-75
2023/06/06 08:03:14;;;;;;;12.82;8.80;;;;;;;21.85;46.79;100771.69;10356842;28;20026;-76
2023/06/06 08:08:18;;;;;;;13.77;8.23;;;;;;;21.75;45.70;100776.59;10354824;28;20646;-76
2023/06/06 08:13:21;;;;;;;13.50;8.68;;;;;;;21.91;45.70;100781.03;10356518;28;20037;-76
2023/06/06 08:18:25;;;;;;;12.10;7.57;;;;;;;22.02;44.90;100777.81;10352884;28;20045;-76
2023/06/06 08:23:28;;;;;;;11.07;7.65;;;;;;;22.13;44.71;100779.22;10353482;28;20034;-76
2023/06/06 08:28:30;;;;;;;11.60;7.20;;;;;;;22.02;44.77;100773.22;10351970;28;20042;-76
2023/06/06 08:33:35;;;;;;;11.23;7.85;;;;;;;22.42;44.54;100770.09;10352091;28;20117;-76
2023/06/06 08:38:38;;;;;;;10.80;7.00;;;;;;;22.55;44.06;100782.06;10351091;28;20398;-76
2023/06/06 08:43:41;;;;;;;12.43;6.75;;;;;;;22.61;43.83;100768.66;10352272;28;20065;-76
2023/06/06 08:48:47;;;;;;;9.90;7.10;;;;;;;22.33;43.84;100769.38;10352396;28;20121;-77
2023/06/06 08:53:51;;;;;;;10.05;6.80;;;;;;;22.27;44.49;100771.00;10353549;28;20050;-76
2023/06/06 08:58:55;;;;;;;12.10;6.80;;;;;;;23.17;43.45;100777.84;10348768;28;20820;-76
2023/06/06 09:04:00;;;;;;;10.73;6.28;;;;;;;23.71;41.72;100784.56;10356330;28;20413;-76
2023/06/06 09:09:04;;;;;;;10.13;6.40;;;;;;;23.12;42.25;100783.09;10352168;28;20046;-76
2023/06/06 09:14:06;;;;;;;9.32;5.90;;;;;;;22.41;42.87;100793.88;10350767;28;20043;-76
2023/06/06 09:19:11;;;;;;;10.52;6.22;;;;;;;22.49;43.80;100784.72;10354782;28;20069;-76
2023/06/06 09:24:16;;;;;;;6.13;5.00;;;;;;;22.56;43.38;100782.91;10345889;28;20049;-76
2023/06/06 09:29:20;;;;;;;8.27;5.80;;;;;;;23.15;42.53;100787.34;10363173;28;20077;-76
2023/06/06 09:34:26;;;;;;;7.35;5.15;;;;;;;23.47;41.34;100780.41;10360711;28;20112;-76
2023/06/06 09:39:29;;;;;;;9.70;6.18;;;;;;;23.72;42.34;100779.94;10361937;28;20050;-77
2023/06/06 09:44:31;;;;;;;9.13;5.80;;;;;;;24.10;41.03;100786.72;10359565;28;20393;-76
2023/06/06 09:49:37;;;;;;;8.57;5.82;;;;;;;24.07;41.62;100787.13;10358263;28;20417;-76
2023/06/06 09:54:43;;;;;;;9.10;5.88;;;;;;;24.28;41.25;100783.41;10360397;28;20154;-76
2023/06/06 09:59:48;;;;;;;7.97;6.00;;;;;;;24.51;41.15;100780.34;10365902;28;20096;-77
2023/06/06 10:04:53;;;;;;;8.25;5.55;;;;;;;25.02;41.04;100780.88;10356691;28;20037;-76
2023/06/06 10:09:57;;;;;;;9.15;5.70;;;;;;;25.07;40.14;100779.22;10357544;28;20065;-77
2023/06/06 10:15:02;;;;;;;8.70;5.68;;;;;;;24.37;41.37;100777.75;10356042;28;20034;-76
2023/06/06 10:20:09;;;;;;;11.52;5.80;;;;;;;24.82;40.89;100770.72;10356993;28;20046;-76
2023/06/06 10:25:14;;;;;;;8.82;4.75;;;;;;;25.06;40.85;100780.25;10355823;28;20042;-76
2023/06/06 10:30:27;;;;;;;9.45;5.95;;;;;;;25.54;39.90;100760.78;10356598;28;20124;-76
2023/06/06 10:35:33;;;;;;;8.02;5.80;;;;;;;26.13;38.39;100761.69;10352194;28;20057;-77
2023/06/06 10:40:43;;;;;;;8.75;5.50;;;;;;;26.02;39.13;100768.72;10355365;28;20042;-76
2023/06/06 10:45:50;;;;;;;9.90;5.20;;;;;;;26.06;38.71;100764.47;10357595;28;20471;-76
2023/06/06 10:50:55;;;;;;;7.55;4.90;;;;;;;26.49;37.81;100768.53;10355823;28;20049;-76
2023/06/06 10:55:57;;;;;;;7.30;5.20;;;;;;;26.38;37.85;100763.72;10357596;28;20038;-77
2023/06/06 11:01:02;;;;;;;11.63;5.28;;;;;;;26.65;37.43;100761.66;10355227;28;20049;-77
2023/06/06 11:06:08;;;;;;;8.00;4.72;;;;;;;26.88;36.37;100770.22;10357110;28;20049;-76
2023/06/06 11:11:18;;;;;;;8.10;4.95;;;;;;;26.82;36.77;100750.94;10352954;28;20070;-77
2023/06/06 11:16:29;;;;;;;13.00;4.75;;;;;;;26.89;36.35;100755.38;10352439;28;20054;-76
2023/06/06 11:21:36;;;;;;;4.80;3.70;;;;;;;26.43;36.58;100758.41;10350711;28;20034;-76
2023/06/06 11:26:41;;;;;;;7.70;4.80;;;;;;;26.46;36.80;100755.19;10352540;28;20053;-76
2023/06/06 11:31:44;;;;;;;4.68;4.28;;;;;;;26.77;37.52;100751.63;10352784;28;20051;-77
2023/06/06 11:36:51;;;;;;;6.18;4.40;;;;;;;26.79;36.52;100754.97;10352827;28;20038;-76
2023/06/06 11:41:56;;;;;;;6.30;4.00;;;;;;;26.75;36.37;100751.00;10352123;28;20456;-76
2023/06/06 11:46:59;;;;;;;9.48;4.70;;;;;;;26.78;37.18;100753.31;10350215;28;20041;-76
2023/06/06 11:52:03;;;;;;;7.70;4.57;;;;;;;27.03;35.61;100745.06;10350844;28;20045;-76
2023/06/06 11:57:08;;;;;;;9.45;4.80;;;;;;;27.16;36.25;100747.72;10349807;28;20477;-76
2023/06/06 12:02:14;;;;;;;7.78;4.45;;;;;;;26.77;36.43;100743.34;10350999;28;20925;-77
2023/06/06 12:07:19;;;;;;;7.47;4.45;;;;;;;26.51;37.41;100738.84;10354240;28;20109;-76
2023/06/06 12:12:22;;;;;;;5.38;4.30;;;;;;;26.25;38.51;100746.22;10354649;28;20042;-77
2023/06/06 12:17:28;;;;;;;11.88;4.68;;;;;;;25.87;37.60;100746.13;10350058;28;20041;-76
2023/06/06 12:22:33;;;;;;;7.57;4.45;;;;;;;25.31;38.63;100739.22;10351749;28;20089;-76
2023/06/06 12:27:36;;;;;;;6.80;3.90;;;;;;;25.45;38.24;100745.56;10350030;28;20041;-77
2023/06/06 12:32:40;;;;;;;7.03;4.10;;;;;;;26.25;37.51;100735.19;10350263;28;20118;-76
2023/06/06 12:37:46;;;;;;;6.05;3.97;;;;;;;26.57;37.67;100748.16;10352268;28;20113;-77
2023/06/06 12:42:52;;;;;;;8.27;4.07;;;;;;;26.76;35.91;100736.13;10351161;28;20042;-77
2023/06/06 12:47:58;;;;;;;6.88;3.63;;;;;;;26.01;35.32;100728.50;10351357;28;20050;-77
2023/06/06 12:53:02;;;;;;;6.88;3.85;;;;;;;25.74;35.89;100725.00;10353541;28;20604;-77
2023/06/06 12:58:06;;;;;;;6.10;3.65;;;;;;;26.14;36.26;100733.09;10352082;28;20037;-76
2023/06/06 13:03:11;;;;;;;6.90;4.50;;;;;;;26.09;37.02;100730.16;10353927;28;20046;-79
2023/06/06 13:08:16;;;;;;;4.63;4.20;;;;;;;25.75;36.16;100718.44;10356822;28;20061;-77
2023/06/06 13:13:40;;;;;;;4.82;3.92;;;;;;;25.44;37.05;100723.78;10354128;28;20124;-76
2023/06/06 13:18:43;;;;;;;9.23;3.90;;;;;;;25.51;38.52;100728.22;10350306;28;20074;-77
2023/06/06 13:23:47;;;;;;;6.75;4.38;;;;;;;25.37;38.74;100732.91;10347212;28;20062;-77
2023/06/06 13:28:53;;;;;;;3.90;3.30;;;;;;;25.71;37.60;100721.84;10346536;28;20046;-77
2023/06/06 13:33:56;;;;;;;4.78;3.60;;;;;;;25.55;38.18;100729.47;10348830;28;20066;-77
2023/06/06 13:39:01;;;;;;;6.05;3.85;;;;;;;25.49;37.67;100733.06;10351037;28;20034;-76
2023/06/06 13:44:04;;;;;;;7.05;3.67;;;;;;;25.45;38.30;100730.97;10351183;28;20042;-77
2023/06/06 13:49:07;;;;;;;4.30;3.10;;;;;;;25.62;38.64;100724.81;10350417;28;20069;-77
2023/06/06 13:54:12;;;;;;;5.65;3.88;;;;;;;25.65;37.38;100718.06;10351805;28;20037;-77
2023/06/06 13:59:15;;;;;;;4.85;3.45;;;;;;;25.72;36.49;100718.03;10350045;28;20053;-76
2023/06/06 14:04:18;;;;;;;4.10;3.00;;;;;;;26.09;36.69;100719.16;10352305;28;20136;-77
2023/06/06 14:09:23;;;;;;;7.18;3.58;;;;;;;25.73;36.08;100709.56;10350306;28;20512;-76
2023/06/06 14:14:26;;;;;;;5.03;3.30;;;;;;;25.48;36.88;100709.41;10349658;28;20399;-77
2023/06/06 14:19:37;;;;;;;7.88;3.58;;;;;;;25.63;37.44;100699.00;10354312;28;20049;-77
2023/06/06 14:24:41;;;;;;;5.40;3.45;;;;;;;25.54;37.51;100707.69;10357768;28;20125;-77
2023/06/06 14:29:44;;;;;;;8.82;3.72;;;;;;;25.44;38.07;100701.78;10358744;28;20049;-77
2023/06/06 14:34:48;;;;;;;9.63;3.75;;;;;;;25.26;38.05;100710.69;10363196;28;20042;-76
2023/06/06 14:39:52;;;;;;;5.18;3.50;;;;;;;24.94;36.65;100710.50;10356114;28;20041;-76
2023/06/06 14:44:56;;;;;;;3.55;3.17;;;;;;;25.00;37.10;100698.63;10353256;28;20045;-77
2023/06/06 14:49:59;;;;;;;5.25;3.70;;;;;;;25.29;37.10;100702.88;10353124;28;20050;-77
2023/06/06 14:55:04;;;;;;;8.88;3.42;;;;;;;25.50;36.64;100703.66;10359084;28;20057;-77
2023/06/06 15:00:08;;;;;;;5.00;3.08;;;;;;;25.60;36.81;100688.41;10352069;28;20058;-77
2023/06/06 15:05:11;;;;;;;8.13;3.45;;;;;;;25.67;35.66;100691.19;10352472;28;20521;-77
2023/06/06 15:10:15;;;;;;;5.22;3.42;;;;;;;25.78;36.04;100682.25;10353518;28;20109;-77
2023/06/06 15:15:18;;;;;;;3.47;3.17;;;;;;;26.05;34.57;100687.63;10352000;28;20501;-77
2023/06/06 15:20:22;;;;;;;8.88;3.67;;;;;;;25.97;33.95;100691.50;10351425;28;20053;-77
2023/06/06 15:25:26;;;;;;;9.43;4.15;;;;;;;25.75;34.02;100679.91;10350531;28;20421;-76
2023/06/06 15:30:29;;;;;;;3.35;3.05;;;;;;;25.62;34.01;100675.28;10351048;28;20052;-77
2023/06/06 15:35:32;;;;;;;6.32;2.97;;;;;;;25.41;34.59;100679.16;10356239;28;20501;-77
2023/06/06 15:40:36;;;;;;;5.95;3.22;;;;;;;25.48;34.70;100670.91;10357388;28;20136;-77
2023/06/06 15:45:39;;;;;;;7.25;3.38;;;;;;;25.35;34.83;100669.03;10351919;28;20037;-77
2023/06/06 15:50:43;;;;;;;8.95;3.80;;;;;;;25.28;34.97;100662.69;10355593;28;20497;-77
2023/06/06 15:55:47;;;;;;;5.68;3.70;;;;;;;25.24;33.41;100657.84;10351335;28;20049;-77
2023/06/06 16:00:50;;;;;;;5.25;3.60;;;;;;;25.02;33.20;100660.81;10352278;28;20513;-77
2023/06/06 16:05:53;;;;;;;4.63;3.15;;;;;;;25.07;34.21;100660.22;10352718;28;20042;-77
2023/06/06 16:10:57;;;;;;;7.90;3.45;;;;;;;25.11;34.48;100662.28;10351364;28;20057;-77
2023/06/06 16:16:00;;;;;;;10.10;3.30;;;;;;;25.09;33.93;100658.06;10352270;28;20492;-76
2023/06/06 16:21:03;;;;;;;5.30;3.53;;;;;;;25.23;35.13;100664.38;10348241;28;20117;-76
2023/06/06 16:26:07;;;;;;;7.13;3.47;;;;;;;25.03;32.75;100665.28;10347600;28;20042;-76
2023/06/06 16:31:11;;;;;;;6.40;3.30;;;;;;;25.10;34.10;100665.28;10350613;28;20046;-77
2023/06/06 16:36:15;;;;;;;3.58;3.00;;;;;;;24.84;35.77;100666.94;10349351;28;20041;-76
2023/06/06 16:41:19;;;;;;;3.90;3.40;;;;;;;24.53;38.17;100657.44;10350353;28;20039;-77
2023/06/06 16:46:23;;;;;;;6.57;3.40;;;;;;;24.28;39.00;100650.81;10347179;28;20046;-76
2023/06/06 16:51:26;;;;;;;7.32;3.30;;;;;;;24.03;40.00;100650.56;10350676;28;20104;-76
2023/06/06 16:56:30;;;;;;;4.05;3.55;;;;;;;24.35;41.65;100668.13;10342075;28;20066;-77
2023/06/06 17:01:33;;;;;;;3.30;3.00;;;;;;;24.39;39.47;100661.19;10348242;28;20054;-76
2023/06/06 17:06:37;;;;;;;5.07;2.90;;;;;;;24.10;39.09;100649.50;10340788;28;20402;-76
2023/06/06 17:11:41;;;;;;;9.88;3.70;;;;;;;23.34;44.31;100646.88;10351830;28;20046;-76
2023/06/06 17:16:45;;;;;;;5.93;3.85;;;;;;;23.17;46.08;100654.53;10347067;28;20041;-76
2023/06/06 17:21:48;;;;;;;4.85;3.50;;;;;;;23.33;44.65;100658.03;10347357;28;20054;-76
2023/06/06 17:26:53;;;;;;;10.00;3.45;;;;;;;23.42;42.23;100652.19;10347439;28;20053;-76
2023/06/06 17:31:55;;;;;;;5.47;3.33;;;;;;;23.42;42.93;100651.31;10348438;28;20042;-75
2023/06/06 17:36:58;;;;;;;6.57;3.42;;;;;;;22.34;44.66;100653.38;10349599;28;20125;-75
2023/06/06 17:42:03;;;;;;;4.63;3.47;;;;;;;22.43;45.47;100656.84;10349425;28;20359;-75
2023/06/06 17:47:06;;;;;;;4.20;3.53;;;;;;;22.61;43.08;100650.94;10350945;28;20479;-75
2023/06/06 17:52:09;;;;;;;6.85;3.80;;;;;;;22.26;42.73;100656.25;10352515;28;20508;-77
2023/06/06 17:57:15;;;;;;;5.90;2.70;;;;;;;21.74;44.55;100641.75;10361881;28;20044;-75
2023/06/06 18:02:18;;;;;;;4.30;3.13;;;;;;;21.59;44.63;100646.41;10362753;28;20532;-77
2023/06/06 18:07:21;;;;;;;5.13;3.60;;;;;;;21.75;44.40;100651.69;10363400;28;20046;-77
2023/06/06 18:12:26;;;;;;;4.38;3.40;;;;;;;21.94;43.12;100661.19;10363996;28;20050;-77
2023/06/06 18:17:28;;;;;;;6.07;2.90;;;;;;;22.04;44.71;100655.38;10359729;28;20444;-77
2023/06/06 18:22:32;;;;;;;4.35;3.05;;;;;;;22.01;44.41;100658.50;10361470;28;20121;-76
2023/06/06 18:27:37;;;;;;;4.80;3.15;;;;;;;21.91;43.94;100653.34;10358336;28;20117;-76
2023/06/06 18:32:40;;;;;;;5.43;2.90;;;;;;;21.80;45.67;100659.31;10358997;28;20050;-75
2023/06/06 18:43:15;;;;;;;4.90;3.72;;;;;;;21.28;51.89;100661.09;10145519;23;20065;-74
2023/06/06 18:48:18;;;;;;;4.80;4.25;;;;;;;20.88;49.64;100678.75;10085277;29;20045;-73
2023/06/06 18:53:21;;;;;;;6.85;4.15;;;;;;;20.82;47.07;100672.16;10126740;29;20075;-74
2023/06/06 18:58:26;;;;;;;12.80;3.38;;;;;;;20.86;44.99;100676.19;10124975;29;20052;-73
2023/06/06 19:03:28;;;;;;;6.30;4.03;;;;;;;20.90;44.82;100688.47;10127429;29;20122;-75
2023/06/06 19:08:32;;;;;;;4.65;3.50;;;;;;;20.88;45.75;100687.78;10124553;29;20052;-76
2023/06/06 19:13:36;;;;;;;7.15;4.03;;;;;;;20.81;46.64;100689.53;10124884;29;20104;-74
2023/06/06 19:18:39;;;;;;;11.00;3.85;;;;;;;20.72;47.11;100701.56;10120769;29;20075;-74
2023/06/06 19:23:42;;;;;;;6.15;4.47;;;;;;;20.59;47.38;100702.19;10121066;29;20045;-75
2023/06/06 19:28:47;;;;;;;6.47;4.30;;;;;;;20.53;48.02;100705.66;10123255;29;20044;-75
2023/06/06 19:33:50;;;;;;;8.05;4.18;;;;;;;20.47;48.53;100718.13;10122287;29;20044;-75
2023/06/06 19:38:53;;;;;;;6.53;4.10;;;;;;;20.43;49.01;100726.84;10123899;29;20064;-74
2023/06/06 19:43:57;;;;;;;9.00;4.28;;;;;;;20.26;49.20;100729.66;10124538;29;20048;-75
2023/06/06 19:49:01;;;;;;;10.05;4.53;;;;;;;20.17;49.79;100736.19;10140287;29;20052;-74
2023/06/06 19:54:04;;;;;;;6.85;4.60;;;;;;;20.05;50.04;100737.63;10121971;29;20049;-76
2023/06/06 19:59:08;;;;;;;7.40;4.60;;;;;;;20.01;50.98;100748.03;10125546;29;20038;-74
2023/06/06 20:04:11;;;;;;;7.65;5.25;;;;;;;19.90;50.95;100751.16;10116079;29;20049;-74
2023/06/06 20:09:14;;;;;;;8.77;5.47;;;;;;;19.82;51.59;100753.91;10111606;29;20048;-74
2023/06/06 20:14:18;;;;;;;5.20;4.70;;;;;;;19.74;52.11;100752.06;10112376;29;20045;-75
2023/06/06 20:19:21;;;;;;;5.65;4.43;;;;;;;19.67;52.03;100757.38;10112245;29;20075;-75
2023/06/06 20:24:24;;;;;;;7.32;5.00;;;;;;;19.63;52.40;100766.91;10112722;29;20104;-74
2023/06/06 20:29:28;;;;;;;8.95;5.30;;;;;;;19.56;53.10;100763.19;10112510;29;20044;-76
2023/06/06 20:34:31;;;;;;;6.18;5.07;;;;;;;19.33;53.51;100768.47;10113582;29;20480;-75
2023/06/06 20:39:37;;;;;;;8.68;6.00;;;;;;;19.23;54.09;100762.38;10112075;29;20056;-76
2023/06/06 20:44:41;;;;;;;5.88;5.13;;;;;;;19.14;54.96;100769.72;10110420;29;20056;-76
2023/06/06 20:49:44;;;;;;;9.85;5.60;;;;;;;19.00;56.06;100767.66;10110331;29;20420;-76
2023/06/06 20:54:47;;;;;;;10.70;5.72;;;;;;;18.77;56.98;100771.00;10124717;29;20457;-76
2023/06/06 20:59:52;;;;;;;8.48;6.03;;;;;;;18.63;57.69;100760.78;10107811;29;20052;-76
2023/06/06 21:04:55;;;;;;;7.65;6.22;;;;;;;18.68;57.90;100754.88;10110507;29;20128;-73
2023/06/06 21:09:58;;;;;;;9.13;5.72;;;;;;;18.58;58.52;100757.72;10112398;29;20073;-74
2023/06/06 21:15:02;;;;;;;10.93;6.85;;;;;;;18.52;58.93;100752.97;10117228;29;20039;-74
2023/06/06 21:20:06;;;;;;;11.98;6.05;;;;;;;18.38;59.41;100756.34;10104390;29;20504;-75
2023/06/06 21:25:10;;;;;;;9.73;6.20;;;;;;;18.32;59.47;100760.53;10101779;29;20400;-76
2023/06/06 21:30:14;;;;;;;11.45;5.72;;;;;;;18.28;59.44;100759.19;10116319;29;20053;-76
2023/06/06 21:35:17;;;;;;;12.50;6.15;;;;;;;18.17;59.42;100762.22;10109466;29;20045;-75
2023/06/06 21:40:20;;;;;;;9.77;5.90;;;;;;;18.18;59.42;100761.19;10113090;29;20052;-76
2023/06/06 21:45:24;;;;;;;7.60;5.90;;;;;;;18.00;59.81;100753.16;10116150;29;20048;-76
2023/06/06 21:50:27;;;;;;;11.63;6.25;;;;;;;17.93;60.03;100763.78;10120130;29;20539;-76
2023/06/06 21:55:30;;;;;;;10.38;6.38;;;;;;;17.68;60.62;100763.66;10128302;29;20043;-76
2023/06/06 22:00:35;;;;;;;10.00;6.28;;;;;;;17.76;60.98;100775.59;10129876;29;20056;-75
2023/06/06 22:05:38;;;;;;;14.15;6.47;;;;;;;17.76;60.63;100779.16;10123812;29;20041;-75
2023/06/06 22:10:41;;;;;;;13.20;7.20;;;;;;;17.62;60.81;100787.91;10115065;29;20049;-75
2023/06/06 22:15:45;;;;;;;10.20;6.70;;;;;;;17.63;60.32;100795.03;10119238;29;20737;-76
2023/06/06 22:20:48;;;;;;;10.18;6.10;;;;;;;17.70;60.21;100793.41;10117606;29;20040;-75
2023/06/06 22:25:51;;;;;;;13.60;6.97;;;;;;;17.75;60.01;100785.63;10117762;29;20044;-75
2023/06/06 22:31:14;;;;;;;10.95;7.20;;;;;;;17.56;59.64;100789.41;10118918;29;20072;-76
2023/06/06 22:36:17;;;;;;;12.57;6.65;;;;;;;17.52;59.08;100798.88;10117935;29;20116;-76
2023/06/06 22:41:20;;;;;;;16.50;7.05;;;;;;;17.36;58.06;100798.75;10115740;29;20060;-76
2023/06/06 22:46:24;;;;;;;10.60;6.38;;;;;;;17.32;58.00;100800.13;10114833;29;20053;-76
2023/06/06 22:51:28;;;;;;;15.45;6.32;;;;;;;17.25;57.77;100794.44;10116174;29;20041;-75
2023/06/06 22:56:31;;;;;;;10.30;6.13;;;;;;;17.28;57.87;100793.28;10116105;29;20066;-75
2023/06/06 23:01:35;;;;;;;13.43;6.30;;;;;;;17.30;57.86;100799.41;10114510;29;20053;-76
2023/06/06 23:06:38;;;;;;;12.52;6.15;;;;;;;17.28;57.91;100794.16;10111720;29;20044;-74
2023/06/06 23:11:41;;;;;;;11.75;5.85;;;;;;;17.27;57.59;100791.59;10109807;29;20135;-75
2023/06/06 23:16:46;;;;;;;12.32;5.82;;;;;;;17.04;58.05;100789.34;10109239;29;20067;-76
2023/06/06 23:21:49;;;;;;;18.15;5.82;;;;;;;17.09;57.71;100786.16;10109605;29;20060;-76